sensor_id;sensor_type;location;lat;lon;timestamp;temperature;humidity
9446;DHT22;4761;49.490;10.908;2022-11-18T00:01:45;17.50;55.10
9446;DHT22;4761;49.490;10.908;2022-11-18T00:04:11;17.40;55.00
9446;DHT22;4761;49.490;10.908;2022-11-18T00:06:36;17.50;55.10
9446;DHT22;4761;49.490;10.908;2022-11-18T00:09:02;17.50;55.10
9446;DHT22;4761;49.490;10.908;2022-11-18T00:11:28;17.50;55.10
9446;DHT22;4761;49.490;10.908;2022-11-18T00:14:16;17.50;55.00
9446;DHT22;4761;49.490;10.908;2022-11-18T00:16:58;17.50;55.00
9446;DHT22;4761;49.490;10.908;2022-11-18T00:19:36;17.50;55.00
9446;DHT22;4761;49.490;10.908;2022-11-18T00:22:03;17.50;54.90
9446;DHT22;4761;49.490;10.908;2022-11-18T00:24:30;17.40;54.90
9446;DHT22;4761;49.490;10.908;2022-11-18T00:26:56;17.40;54.80
9446;DHT22;4761;49.490;10.908;2022-11-18T00:29:22;17.50;54.90
9446;DHT22;4761;49.490;10.908;2022-11-18T00:31:50;17.40;54.80
9446;DHT22;4761;49.490;10.908;2022-11-18T00:34:17;17.40;54.70
9446;DHT22;4761;49.490;10.908;2022-11-18T00:36:44;17.40;54.70
9446;DHT22;4761;49.490;10.908;2022-11-18T00:39:10;17.40;54.70
9446;DHT22;4761;49.490;10.908;2022-11-18T00:41:36;17.40;54.70
9446;DHT22;4761;49.490;10.908;2022-11-18T00:44:20;17.40;54.60
9446;DHT22;4761;49.490;10.908;2022-11-18T00:46:46;17.40;54.70
9446;DHT22;4761;49.490;10.908;2022-11-18T00:49:11;17.40;54.70
9446;DHT22;4761;49.490;10.908;2022-11-18T00:51:37;17.40;54.70
9446;DHT22;4761;49.490;10.908;2022-11-18T00:54:03;17.40;54.70
9446;DHT22;4761;49.490;10.908;2022-11-18T00:56:29;17.40;54.70
9446;DHT22;4761;49.490;10.908;2022-11-18T00:58:54;17.40;54.60
9446;DHT22;4761;49.490;10.908;2022-11-18T01:01:20;17.40;54.60
9446;DHT22;4761;49.490;10.908;2022-11-18T01:03:46;17.40;54.60
9446;DHT22;4761;49.490;10.908;2022-11-18T01:06:11;17.40;54.60
9446;DHT22;4761;49.490;10.908;2022-11-18T01:08:37;17.40;54.60
9446;DHT22;4761;49.490;10.908;2022-11-18T01:11:02;17.40;54.60
9446;DHT22;4761;49.490;10.908;2022-11-18T01:13:50;17.40;54.60
9446;DHT22;4761;49.490;10.908;2022-11-18T01:16:22;17.40;54.60
9446;DHT22;4761;49.490;10.908;2022-11-18T01:18:47;17.40;54.60
9446;DHT22;4761;49.490;10.908;2022-11-18T01:21:13;17.40;54.60
9446;DHT22;4761;49.490;10.908;2022-11-18T01:23:39;17.40;54.60
9446;DHT22;4761;49.490;10.908;2022-11-18T01:26:07;17.40;54.60
9446;DHT22;4761;49.490;10.908;2022-11-18T01:28:34;17.40;54.60
9446;DHT22;4761;49.490;10.908;2022-11-18T01:31:09;17.40;54.50
9446;DHT22;4761;49.490;10.908;2022-11-18T01:33:35;17.40;54.50
9446;DHT22;4761;49.490;10.908;2022-11-18T01:36:00;17.40;54.50
9446;DHT22;4761;49.490;10.908;2022-11-18T01:38:26;17.40;54.50
9446;DHT22;4761;49.490;10.908;2022-11-18T01:40:53;17.40;54.40
9446;DHT22;4761;49.490;10.908;2022-11-18T01:43:20;17.40;54.50
9446;DHT22;4761;49.490;10.908;2022-11-18T01:45:48;17.40;54.40
9446;DHT22;4761;49.490;10.908;2022-11-18T01:50:49;17.40;54.30
9446;DHT22;4761;49.490;10.908;2022-11-18T01:53:22;17.50;54.30
9446;DHT22;4761;49.490;10.908;2022-11-18T01:55:51;17.50;54.20
9446;DHT22;4761;49.490;10.908;2022-11-18T01:58:26;17.50;54.20
9446;DHT22;4761;49.490;10.908;2022-11-18T02:00:53;17.50;54.10
9446;DHT22;4761;49.490;10.908;2022-11-18T02:03:19;17.50;54.20
9446;DHT22;4761;49.490;10.908;2022-11-18T02:05:47;17.50;54.20
9446;DHT22;4761;49.490;10.908;2022-11-18T02:08:14;17.50;54.20
9446;DHT22;4761;49.490;10.908;2022-11-18T02:10:39;17.50;54.20
9446;DHT22;4761;49.490;10.908;2022-11-18T02:13:05;17.50;54.10
9446;DHT22;4761;49.490;10.908;2022-11-18T02:18:14;17.50;54.10
9446;DHT22;4761;49.490;10.908;2022-11-18T02:20:43;17.40;53.90
9446;DHT22;4761;49.490;10.908;2022-11-18T02:31:39;17.40;53.70
9446;DHT22;4761;49.490;10.908;2022-11-18T02:34:17;17.40;53.80
9446;DHT22;4761;49.490;10.908;2022-11-18T02:39:25;17.30;53.50
9446;DHT22;4761;49.490;10.908;2022-11-18T02:41:54;17.30;53.50
9446;DHT22;4761;49.490;10.908;2022-11-18T02:44:23;17.30;53.40
9446;DHT22;4761;49.490;10.908;2022-11-18T02:46:54;17.30;53.40
9446;DHT22;4761;49.490;10.908;2022-11-18T02:49:26;17.30;53.40
9446;DHT22;4761;49.490;10.908;2022-11-18T02:51:53;17.30;53.40
9446;DHT22;4761;49.490;10.908;2022-11-18T02:54:21;17.30;53.40
9446;DHT22;4761;49.490;10.908;2022-11-18T02:56:48;17.30;53.40
9446;DHT22;4761;49.490;10.908;2022-11-18T02:59:19;17.30;53.40
9446;DHT22;4761;49.490;10.908;2022-11-18T03:01:44;17.30;53.30
9446;DHT22;4761;49.490;10.908;2022-11-18T03:04:11;17.30;53.40
9446;DHT22;4761;49.490;10.908;2022-11-18T03:06:39;17.30;53.40
9446;DHT22;4761;49.490;10.908;2022-11-18T03:09:30;17.30;53.40
9446;DHT22;4761;49.490;10.908;2022-11-18T03:17:37;17.30;53.40
9446;DHT22;4761;49.490;10.908;2022-11-18T03:25:23;17.30;53.60
9446;DHT22;4761;49.490;10.908;2022-11-18T03:28:08;17.30;53.60
9446;DHT22;4761;49.490;10.908;2022-11-18T03:30:38;17.30;53.50
9446;DHT22;4761;49.490;10.908;2022-11-18T03:33:12;17.30;53.50
9446;DHT22;4761;49.490;10.908;2022-11-18T03:35:41;17.30;53.50
9446;DHT22;4761;49.490;10.908;2022-11-18T03:38:13;17.30;53.50
9446;DHT22;4761;49.490;10.908;2022-11-18T03:40:44;17.30;53.50
9446;DHT22;4761;49.490;10.908;2022-11-18T03:43:15;17.30;53.50
9446;DHT22;4761;49.490;10.908;2022-11-18T03:48:44;17.30;53.40
9446;DHT22;4761;49.490;10.908;2022-11-18T03:51:17;17.30;53.50
9446;DHT22;4761;49.490;10.908;2022-11-18T03:53:51;17.30;53.40
9446;DHT22;4761;49.490;10.908;2022-11-18T03:56:21;17.30;53.40
9446;DHT22;4761;49.490;10.908;2022-11-18T04:01:46;17.30;53.50
9446;DHT22;4761;49.490;10.908;2022-11-18T04:04:14;17.30;53.50
9446;DHT22;4761;49.490;10.908;2022-11-18T04:06:53;17.30;53.50
9446;DHT22;4761;49.490;10.908;2022-11-18T04:09:25;17.30;53.40
9446;DHT22;4761;49.490;10.908;2022-11-18T04:11:57;17.30;53.50
9446;DHT22;4761;49.490;10.908;2022-11-18T04:14:30;17.30;53.60
9446;DHT22;4761;49.490;10.908;2022-11-18T04:16:56;17.30;53.60
9446;DHT22;4761;49.490;10.908;2022-11-18T04:19:22;17.30;53.50
9446;DHT22;4761;49.490;10.908;2022-11-18T04:21:48;17.30;53.50
9446;DHT22;4761;49.490;10.908;2022-11-18T04:24:14;17.30;53.50
9446;DHT22;4761;49.490;10.908;2022-11-18T04:26:40;17.30;53.50
9446;DHT22;4761;49.490;10.908;2022-11-18T04:29:06;17.30;53.40
9446;DHT22;4761;49.490;10.908;2022-11-18T04:31:31;17.30;53.40
9446;DHT22;4761;49.490;10.908;2022-11-18T04:33:57;17.30;53.40
9446;DHT22;4761;49.490;10.908;2022-11-18T04:36:22;17.30;53.40
9446;DHT22;4761;49.490;10.908;2022-11-18T04:38:48;17.30;53.40
9446;DHT22;4761;49.490;10.908;2022-11-18T04:41:13;17.30;53.50
9446;DHT22;4761;49.490;10.908;2022-11-18T04:43:40;17.30;53.50
9446;DHT22;4761;49.490;10.908;2022-11-18T04:46:05;17.30;53.40
9446;DHT22;4761;49.490;10.908;2022-11-18T04:48:31;17.30;53.50
9446;DHT22;4761;49.490;10.908;2022-11-18T04:50:56;17.30;53.40
9446;DHT22;4761;49.490;10.908;2022-11-18T04:53:22;17.30;53.40
9446;DHT22;4761;49.490;10.908;2022-11-18T04:55:47;17.30;53.50
9446;DHT22;4761;49.490;10.908;2022-11-18T04:58:13;17.30;53.40
9446;DHT22;4761;49.490;10.908;2022-11-18T05:00:38;17.30;53.40
9446;DHT22;4761;49.490;10.908;2022-11-18T05:03:04;17.30;53.40
9446;DHT22;4761;49.490;10.908;2022-11-18T05:05:29;17.30;53.40
9446;DHT22;4761;49.490;10.908;2022-11-18T05:07:55;17.30;53.40
9446;DHT22;4761;49.490;10.908;2022-11-18T05:10:21;17.30;53.40
9446;DHT22;4761;49.490;10.908;2022-11-18T05:12:46;17.30;53.30
9446;DHT22;4761;49.490;10.908;2022-11-18T05:15:20;17.20;53.30
9446;DHT22;4761;49.490;10.908;2022-11-18T05:17:46;17.30;53.40
9446;DHT22;4761;49.490;10.908;2022-11-18T05:20:12;17.30;53.30
9446;DHT22;4761;49.490;10.908;2022-11-18T05:22:38;17.30;53.40
9446;DHT22;4761;49.490;10.908;2022-11-18T05:25:05;17.30;53.30
9446;DHT22;4761;49.490;10.908;2022-11-18T05:27:30;17.30;53.40
9446;DHT22;4761;49.490;10.908;2022-11-18T05:29:56;17.30;53.40
9446;DHT22;4761;49.490;10.908;2022-11-18T05:32:21;17.30;53.40
9446;DHT22;4761;49.490;10.908;2022-11-18T05:34:47;17.30;53.30
9446;DHT22;4761;49.490;10.908;2022-11-18T05:37:13;17.30;53.40
9446;DHT22;4761;49.490;10.908;2022-11-18T05:39:38;17.30;53.40
9446;DHT22;4761;49.490;10.908;2022-11-18T05:42:04;17.30;53.30
9446;DHT22;4761;49.490;10.908;2022-11-18T05:44:48;17.30;53.30
9446;DHT22;4761;49.490;10.908;2022-11-18T05:47:15;17.30;53.40
9446;DHT22;4761;49.490;10.908;2022-11-18T05:49:40;17.30;53.40
9446;DHT22;4761;49.490;10.908;2022-11-18T05:52:06;17.30;53.40
9446;DHT22;4761;49.490;10.908;2022-11-18T05:54:32;17.20;53.30
9446;DHT22;4761;49.490;10.908;2022-11-18T05:56:58;17.30;53.40
9446;DHT22;4761;49.490;10.908;2022-11-18T05:59:23;17.30;53.40
9446;DHT22;4761;49.490;10.908;2022-11-18T06:04:33;17.30;53.40
9446;DHT22;4761;49.490;10.908;2022-11-18T06:07:08;17.30;53.40
9446;DHT22;4761;49.490;10.908;2022-11-18T06:09:37;17.30;53.90
9446;DHT22;4761;49.490;10.908;2022-11-18T06:12:04;17.20;53.30
9446;DHT22;4761;49.490;10.908;2022-11-18T06:14:40;17.30;53.30
9446;DHT22;4761;49.490;10.908;2022-11-18T06:17:10;17.10;53.20
9446;DHT22;4761;49.490;10.908;2022-11-18T06:19:38;17.10;53.60
9446;DHT22;4761;49.490;10.908;2022-11-18T06:22:04;17.40;53.40
9446;DHT22;4761;49.490;10.908;2022-11-18T06:24:30;17.40;53.40
9446;DHT22;4761;49.490;10.908;2022-11-18T06:26:57;17.50;53.60
9446;DHT22;4761;49.490;10.908;2022-11-18T06:29:23;17.50;53.50
9446;DHT22;4761;49.490;10.908;2022-11-18T06:31:49;17.60;53.60
9446;DHT22;4761;49.490;10.908;2022-11-18T06:34:14;17.70;53.70
9446;DHT22;4761;49.490;10.908;2022-11-18T06:36:40;17.70;53.70
9446;DHT22;4761;49.490;10.908;2022-11-18T06:39:06;17.70;53.60
9446;DHT22;4761;49.490;10.908;2022-11-18T06:41:32;17.80;53.60
9446;DHT22;4761;49.490;10.908;2022-11-18T06:43:58;17.90;53.70
9446;DHT22;4761;49.490;10.908;2022-11-18T06:46:23;17.90;53.70
9446;DHT22;4761;49.490;10.908;2022-11-18T06:49:15;17.90;53.70
9446;DHT22;4761;49.490;10.908;2022-11-18T06:51:40;18.00;53.70
9446;DHT22;4761;49.490;10.908;2022-11-18T06:54:06;18.00;53.70
9446;DHT22;4761;49.490;10.908;2022-11-18T06:56:33;18.10;53.70
9446;DHT22;4761;49.490;10.908;2022-11-18T06:58:59;18.10;53.70
9446;DHT22;4761;49.490;10.908;2022-11-18T07:01:27;18.10;53.70
9446;DHT22;4761;49.490;10.908;2022-11-18T07:03:53;18.20;52.00
9446;DHT22;4761;49.490;10.908;2022-11-18T07:06:22;18.20;52.30
9446;DHT22;4761;49.490;10.908;2022-11-18T07:08:48;18.20;52.30
9446;DHT22;4761;49.490;10.908;2022-11-18T07:11:16;18.20;52.30
9446;DHT22;4761;49.490;10.908;2022-11-18T07:13:43;18.20;52.30
9446;DHT22;4761;49.490;10.908;2022-11-18T07:18:43;18.20;52.40
9446;DHT22;4761;49.490;10.908;2022-11-18T07:21:11;18.20;52.40
9446;DHT22;4761;49.490;10.908;2022-11-18T07:23:38;18.20;52.50
9446;DHT22;4761;49.490;10.908;2022-11-18T07:26:04;18.30;52.70
9446;DHT22;4761;49.490;10.908;2022-11-18T07:28:30;18.30;52.80
9446;DHT22;4761;49.490;10.908;2022-11-18T07:31:04;18.30;52.90
9446;DHT22;4761;49.490;10.908;2022-11-18T07:33:31;18.30;52.90
9446;DHT22;4761;49.490;10.908;2022-11-18T07:36:04;18.30;53.00
9446;DHT22;4761;49.490;10.908;2022-11-18T07:38:30;18.30;53.10
9446;DHT22;4761;49.490;10.908;2022-11-18T07:41:23;18.30;53.20
9446;DHT22;4761;49.490;10.908;2022-11-18T07:43:49;18.30;53.20
9446;DHT22;4761;49.490;10.908;2022-11-18T07:46:27;18.30;53.30
9446;DHT22;4761;49.490;10.908;2022-11-18T07:48:55;18.30;53.40
9446;DHT22;4761;49.490;10.908;2022-11-18T07:51:23;18.30;53.50
9446;DHT22;4761;49.490;10.908;2022-11-18T07:53:49;18.30;53.50
9446;DHT22;4761;49.490;10.908;2022-11-18T07:56:15;18.30;53.50
9446;DHT22;4761;49.490;10.908;2022-11-18T07:58:41;18.40;53.60
9446;DHT22;4761;49.490;10.908;2022-11-18T08:01:15;18.40;53.60
9446;DHT22;4761;49.490;10.908;2022-11-18T08:03:41;18.40;53.60
9446;DHT22;4761;49.490;10.908;2022-11-18T08:06:08;18.40;53.70
9446;DHT22;4761;49.490;10.908;2022-11-18T08:08:35;18.40;53.80
9446;DHT22;4761;49.490;10.908;2022-11-18T08:11:02;18.40;53.70
9446;DHT22;4761;49.490;10.908;2022-11-18T08:13:28;18.40;53.70
9446;DHT22;4761;49.490;10.908;2022-11-18T08:15:54;18.40;53.80
9446;DHT22;4761;49.490;10.908;2022-11-18T08:18:21;18.40;53.80
9446;DHT22;4761;49.490;10.908;2022-11-18T08:20:47;18.40;53.80
9446;DHT22;4761;49.490;10.908;2022-11-18T08:23:13;18.40;53.80
9446;DHT22;4761;49.490;10.908;2022-11-18T08:25:40;18.40;53.80
9446;DHT22;4761;49.490;10.908;2022-11-18T08:28:06;18.40;53.80
9446;DHT22;4761;49.490;10.908;2022-11-18T08:30:33;18.40;53.90
9446;DHT22;4761;49.490;10.908;2022-11-18T08:32:59;18.40;53.90
9446;DHT22;4761;49.490;10.908;2022-11-18T08:35:28;18.40;53.90
9446;DHT22;4761;49.490;10.908;2022-11-18T08:37:55;18.40;53.90
9446;DHT22;4761;49.490;10.908;2022-11-18T08:40:20;18.40;54.00
9446;DHT22;4761;49.490;10.908;2022-11-18T08:42:46;18.40;54.00
9446;DHT22;4761;49.490;10.908;2022-11-18T08:45:12;18.40;54.10
9446;DHT22;4761;49.490;10.908;2022-11-18T08:47:38;18.40;54.10
9446;DHT22;4761;49.490;10.908;2022-11-18T08:50:05;18.40;54.10
9446;DHT22;4761;49.490;10.908;2022-11-18T08:52:31;18.40;54.10
9446;DHT22;4761;49.490;10.908;2022-11-18T08:54:57;18.40;54.70
9446;DHT22;4761;49.490;10.908;2022-11-18T08:57:22;18.40;54.10
9446;DHT22;4761;49.490;10.908;2022-11-18T08:59:48;18.40;54.10
9446;DHT22;4761;49.490;10.908;2022-11-18T09:02:18;18.40;54.10
9446;DHT22;4761;49.490;10.908;2022-11-18T09:04:46;18.50;51.60
9446;DHT22;4761;49.490;10.908;2022-11-18T09:07:11;18.50;51.40
9446;DHT22;4761;49.490;10.908;2022-11-18T09:09:37;18.40;51.50
9446;DHT22;4761;49.490;10.908;2022-11-18T09:12:02;18.40;51.50
9446;DHT22;4761;49.490;10.908;2022-11-18T09:14:28;18.20;51.70
9446;DHT22;4761;49.490;10.908;2022-11-18T09:16:54;18.10;52.10
9446;DHT22;4761;49.490;10.908;2022-11-18T09:19:19;18.00;52.30
9446;DHT22;4761;49.490;10.908;2022-11-18T09:21:45;17.90;52.50
9446;DHT22;4761;49.490;10.908;2022-11-18T09:24:10;17.80;52.70
9446;DHT22;4761;49.490;10.908;2022-11-18T09:26:36;17.70;52.80
9446;DHT22;4761;49.490;10.908;2022-11-18T09:29:02;17.70;53.00
9446;DHT22;4761;49.490;10.908;2022-11-18T09:31:28;17.70;53.20
9446;DHT22;4761;49.490;10.908;2022-11-18T09:33:53;17.60;53.20
9446;DHT22;4761;49.490;10.908;2022-11-18T09:36:21;17.60;53.30
9446;DHT22;4761;49.490;10.908;2022-11-18T09:38:47;17.60;53.40
9446;DHT22;4761;49.490;10.908;2022-11-18T09:49:36;17.50;53.50
9446;DHT22;4761;49.490;10.908;2022-11-18T09:52:03;17.50;53.60
9446;DHT22;4761;49.490;10.908;2022-11-18T09:54:33;17.40;53.60
9446;DHT22;4761;49.490;10.908;2022-11-18T09:56:59;17.50;53.70
9446;DHT22;4761;49.490;10.908;2022-11-18T09:59:27;17.40;53.60
9446;DHT22;4761;49.490;10.908;2022-11-18T10:02:02;17.40;53.60
9446;DHT22;4761;49.490;10.908;2022-11-18T10:04:32;17.40;53.60
9446;DHT22;4761;49.490;10.908;2022-11-18T10:06:58;17.40;54.30
9446;DHT22;4761;49.490;10.908;2022-11-18T10:09:38;17.40;53.70
9446;DHT22;4761;49.490;10.908;2022-11-18T10:23:31;17.40;54.10
9446;DHT22;4761;49.490;10.908;2022-11-18T10:25:57;17.30;54.10
9446;DHT22;4761;49.490;10.908;2022-11-18T10:28:28;17.30;54.10
9446;DHT22;4761;49.490;10.908;2022-11-18T10:31:06;17.40;54.20
9446;DHT22;4761;49.490;10.908;2022-11-18T10:33:32;17.40;54.20
9446;DHT22;4761;49.490;10.908;2022-11-18T10:36:24;17.30;54.20
9446;DHT22;4761;49.490;10.908;2022-11-18T10:39:09;17.30;54.20
9446;DHT22;4761;49.490;10.908;2022-11-18T10:41:47;17.30;54.20
9446;DHT22;4761;49.490;10.908;2022-11-18T10:44:34;17.40;54.30
9446;DHT22;4761;49.490;10.908;2022-11-18T10:49:47;17.40;54.40
9446;DHT22;4761;49.490;10.908;2022-11-18T10:52:13;17.40;54.40
9446;DHT22;4761;49.490;10.908;2022-11-18T10:54:40;17.40;54.40
9446;DHT22;4761;49.490;10.908;2022-11-18T10:57:14;17.40;54.30
9446;DHT22;4761;49.490;10.908;2022-11-18T11:04:47;17.50;54.20
9446;DHT22;4761;49.490;10.908;2022-11-18T11:07:15;17.50;54.10
9446;DHT22;4761;49.490;10.908;2022-11-18T11:09:41;17.50;54.00
9446;DHT22;4761;49.490;10.908;2022-11-18T11:12:15;17.50;54.10
9446;DHT22;4761;49.490;10.908;2022-11-18T11:14:52;17.50;54.10
9446;DHT22;4761;49.490;10.908;2022-11-18T11:17:32;17.50;54.40
9446;DHT22;4761;49.490;10.908;2022-11-18T11:20:19;17.50;54.20
9446;DHT22;4761;49.490;10.908;2022-11-18T11:22:46;17.50;54.30
9446;DHT22;4761;49.490;10.908;2022-11-18T11:25:17;17.40;54.30
9446;DHT22;4761;49.490;10.908;2022-11-18T11:27:49;17.40;54.40
9446;DHT22;4761;49.490;10.908;2022-11-18T11:30:21;17.40;54.50
9446;DHT22;4761;49.490;10.908;2022-11-18T11:41:22;17.50;54.70
9446;DHT22;4761;49.490;10.908;2022-11-18T11:44:16;17.50;54.80
9446;DHT22;4761;49.490;10.908;2022-11-18T11:52:27;17.40;54.80
9446;DHT22;4761;49.490;10.908;2022-11-18T11:57:58;17.40;54.90
9446;DHT22;4761;49.490;10.908;2022-11-18T12:00:29;17.40;54.90
9446;DHT22;4761;49.490;10.908;2022-11-18T12:03:32;17.40;55.00
9446;DHT22;4761;49.490;10.908;2022-11-18T12:06:01;17.50;55.10
9446;DHT22;4761;49.490;10.908;2022-11-18T12:08:30;17.40;55.00
9446;DHT22;4761;49.490;10.908;2022-11-18T12:11:12;17.40;55.00
9446;DHT22;4761;49.490;10.908;2022-11-18T12:13:56;17.50;55.20
9446;DHT22;4761;49.490;10.908;2022-11-18T12:24:37;17.40;55.20
9446;DHT22;4761;49.490;10.908;2022-11-18T12:32:28;17.50;55.40
9446;DHT22;4761;49.490;10.908;2022-11-18T12:35:00;17.50;55.40
9446;DHT22;4761;49.490;10.908;2022-11-18T12:42:44;17.50;55.40
9446;DHT22;4761;49.490;10.908;2022-11-18T12:50:50;17.40;55.30
9446;DHT22;4761;49.490;10.908;2022-11-18T12:53:38;17.40;55.90
9446;DHT22;4761;49.490;10.908;2022-11-18T12:58:49;17.40;55.40
9446;DHT22;4761;49.490;10.908;2022-11-18T13:01:17;17.40;55.40
9446;DHT22;4761;49.490;10.908;2022-11-18T13:03:43;17.40;55.40
9446;DHT22;4761;49.490;10.908;2022-11-18T13:06:28;17.40;55.40
9446;DHT22;4761;49.490;10.908;2022-11-18T13:08:57;17.40;55.30
9446;DHT22;4761;49.490;10.908;2022-11-18T13:11:24;17.40;55.40
9446;DHT22;4761;49.490;10.908;2022-11-18T13:14:19;17.40;55.40
9446;DHT22;4761;49.490;10.908;2022-11-18T13:17:35;17.40;55.40
9446;DHT22;4761;49.490;10.908;2022-11-18T13:20:34;17.40;55.40
9446;DHT22;4761;49.490;10.908;2022-11-18T13:25:46;17.40;55.60
9446;DHT22;4761;49.490;10.908;2022-11-18T13:28:20;17.40;55.60
9446;DHT22;4761;49.490;10.908;2022-11-18T13:31:14;17.40;55.60
9446;DHT22;4761;49.490;10.908;2022-11-18T13:33:42;17.40;56.20
9446;DHT22;4761;49.490;10.908;2022-11-18T13:36:19;17.40;55.70
9446;DHT22;4761;49.490;10.908;2022-11-18T13:39:03;17.40;55.60
9446;DHT22;4761;49.490;10.908;2022-11-18T13:41:32;17.40;55.60
9446;DHT22;4761;49.490;10.908;2022-11-18T13:44:20;17.40;55.60
9446;DHT22;4761;49.490;10.908;2022-11-18T13:46:49;17.40;55.60
9446;DHT22;4761;49.490;10.908;2022-11-18T13:49:21;17.40;55.60
9446;DHT22;4761;49.490;10.908;2022-11-18T13:51:48;17.40;55.60
9446;DHT22;4761;49.490;10.908;2022-11-18T13:54:21;17.40;55.60
9446;DHT22;4761;49.490;10.908;2022-11-18T13:56:49;17.40;55.60
9446;DHT22;4761;49.490;10.908;2022-11-18T13:59:20;17.40;55.60
9446;DHT22;4761;49.490;10.908;2022-11-18T14:01:53;17.50;55.60
9446;DHT22;4761;49.490;10.908;2022-11-18T14:04:25;17.50;55.60
9446;DHT22;4761;49.490;10.908;2022-11-18T14:06:51;17.40;55.50
9446;DHT22;4761;49.490;10.908;2022-11-18T14:09:24;17.40;55.50
9446;DHT22;4761;49.490;10.908;2022-11-18T14:14:31;17.50;55.60
9446;DHT22;4761;49.490;10.908;2022-11-18T14:19:42;17.50;55.60
9446;DHT22;4761;49.490;10.908;2022-11-18T14:22:19;17.40;55.60
9446;DHT22;4761;49.490;10.908;2022-11-18T14:24:56;17.50;55.60
9446;DHT22;4761;49.490;10.908;2022-11-18T14:27:40;17.50;55.60
9446;DHT22;4761;49.490;10.908;2022-11-18T14:35:31;17.40;55.50
9446;DHT22;4761;49.490;10.908;2022-11-18T14:37:57;17.40;55.60
9446;DHT22;4761;49.490;10.908;2022-11-18T14:40:22;17.40;55.50
9446;DHT22;4761;49.490;10.908;2022-11-18T14:42:48;17.40;55.50
9446;DHT22;4761;49.490;10.908;2022-11-18T14:45:13;17.40;55.50
9446;DHT22;4761;49.490;10.908;2022-11-18T14:47:39;17.40;55.40
9446;DHT22;4761;49.490;10.908;2022-11-18T14:50:11;17.40;55.40
9446;DHT22;4761;49.490;10.908;2022-11-18T14:52:37;17.40;55.30
9446;DHT22;4761;49.490;10.908;2022-11-18T14:55:03;17.40;55.30
9446;DHT22;4761;49.490;10.908;2022-11-18T14:57:28;17.40;55.30
9446;DHT22;4761;49.490;10.908;2022-11-18T14:59:54;17.40;55.20
9446;DHT22;4761;49.490;10.908;2022-11-18T15:02:19;17.40;55.10
9446;DHT22;4761;49.490;10.908;2022-11-18T15:04:45;17.50;55.10
9446;DHT22;4761;49.490;10.908;2022-11-18T15:07:12;17.50;55.10
9446;DHT22;4761;49.490;10.908;2022-11-18T15:09:39;17.50;55.00
9446;DHT22;4761;49.490;10.908;2022-11-18T15:12:04;17.50;54.90
9446;DHT22;4761;49.490;10.908;2022-11-18T15:14:30;17.50;54.80
9446;DHT22;4761;49.490;10.908;2022-11-18T15:16:55;17.50;54.80
9446;DHT22;4761;49.490;10.908;2022-11-18T15:19:21;17.50;54.70
9446;DHT22;4761;49.490;10.908;2022-11-18T15:21:47;17.50;54.70
9446;DHT22;4761;49.490;10.908;2022-11-18T15:24:12;17.50;54.70
9446;DHT22;4761;49.490;10.908;2022-11-18T15:26:41;17.50;54.80
9446;DHT22;4761;49.490;10.908;2022-11-18T15:29:22;17.50;54.80
9446;DHT22;4761;49.490;10.908;2022-11-18T15:31:48;17.50;54.80
9446;DHT22;4761;49.490;10.908;2022-11-18T15:34:14;17.50;54.80
9446;DHT22;4761;49.490;10.908;2022-11-18T15:36:40;17.50;54.80
9446;DHT22;4761;49.490;10.908;2022-11-18T15:39:06;17.50;54.70
9446;DHT22;4761;49.490;10.908;2022-11-18T15:41:33;17.50;54.70
9446;DHT22;4761;49.490;10.908;2022-11-18T15:43:59;17.50;54.70
9446;DHT22;4761;49.490;10.908;2022-11-18T15:46:26;17.50;54.70
9446;DHT22;4761;49.490;10.908;2022-11-18T15:48:53;17.50;54.70
9446;DHT22;4761;49.490;10.908;2022-11-18T15:51:19;17.50;54.70
9446;DHT22;4761;49.490;10.908;2022-11-18T15:53:45;17.50;54.60
9446;DHT22;4761;49.490;10.908;2022-11-18T16:01:21;17.50;54.50
9446;DHT22;4761;49.490;10.908;2022-11-18T16:03:47;17.50;54.60
9446;DHT22;4761;49.490;10.908;2022-11-18T16:06:13;17.50;54.50
9446;DHT22;4761;49.490;10.908;2022-11-18T16:08:38;17.50;54.50
9446;DHT22;4761;49.490;10.908;2022-11-18T16:11:04;17.50;54.50
9446;DHT22;4761;49.490;10.908;2022-11-18T16:13:48;17.50;54.50
9446;DHT22;4761;49.490;10.908;2022-11-18T16:16:21;17.50;54.50
9446;DHT22;4761;49.490;10.908;2022-11-18T16:18:47;17.50;54.50
9446;DHT22;4761;49.490;10.908;2022-11-18T16:21:13;17.50;54.50
9446;DHT22;4761;49.490;10.908;2022-11-18T16:23:38;17.50;54.40
9446;DHT22;4761;49.490;10.908;2022-11-18T16:26:04;17.50;54.50
9446;DHT22;4761;49.490;10.908;2022-11-18T16:28:30;17.50;54.50
9446;DHT22;4761;49.490;10.908;2022-11-18T16:30:55;17.50;54.40
9446;DHT22;4761;49.490;10.908;2022-11-18T16:33:39;17.50;54.40
9446;DHT22;4761;49.490;10.908;2022-11-18T16:36:05;17.40;54.30
9446;DHT22;4761;49.490;10.908;2022-11-18T16:38:31;17.40;54.40
9446;DHT22;4761;49.490;10.908;2022-11-18T16:40:57;17.40;54.40
9446;DHT22;4761;49.490;10.908;2022-11-18T16:43:24;17.40;54.40
9446;DHT22;4761;49.490;10.908;2022-11-18T16:45:53;17.40;54.40
9446;DHT22;4761;49.490;10.908;2022-11-18T16:48:20;17.50;54.50
9446;DHT22;4761;49.490;10.908;2022-11-18T16:51:01;17.40;54.40
9446;DHT22;4761;49.490;10.908;2022-11-18T16:53:32;17.50;54.40
9446;DHT22;4761;49.490;10.908;2022-11-18T16:56:01;17.50;54.40
9446;DHT22;4761;49.490;10.908;2022-11-18T16:58:28;17.50;54.40
9446;DHT22;4761;49.490;10.908;2022-11-18T17:00:53;17.50;54.40
9446;DHT22;4761;49.490;10.908;2022-11-18T17:03:19;17.40;54.30
9446;DHT22;4761;49.490;10.908;2022-11-18T17:05:44;17.50;54.40
9446;DHT22;4761;49.490;10.908;2022-11-18T17:08:10;17.50;54.50
9446;DHT22;4761;49.490;10.908;2022-11-18T17:10:35;17.50;54.40
9446;DHT22;4761;49.490;10.908;2022-11-18T17:13:01;17.50;54.30
9446;DHT22;4761;49.490;10.908;2022-11-18T17:15:26;17.50;54.30
9446;DHT22;4761;49.490;10.908;2022-11-18T17:17:52;17.50;54.30
9446;DHT22;4761;49.490;10.908;2022-11-18T17:20:18;17.40;54.30
9446;DHT22;4761;49.490;10.908;2022-11-18T17:22:44;17.40;54.30
9446;DHT22;4761;49.490;10.908;2022-11-18T17:25:09;17.40;54.30
9446;DHT22;4761;49.490;10.908;2022-11-18T17:27:35;17.40;54.30
9446;DHT22;4761;49.490;10.908;2022-11-18T17:30:00;17.40;54.30
9446;DHT22;4761;49.490;10.908;2022-11-18T17:32:26;17.40;54.30
9446;DHT22;4761;49.490;10.908;2022-11-18T17:34:51;17.40;54.30
9446;DHT22;4761;49.490;10.908;2022-11-18T17:37:17;17.40;54.40
9446;DHT22;4761;49.490;10.908;2022-11-18T17:39:42;17.40;54.40
9446;DHT22;4761;49.490;10.908;2022-11-18T17:42:08;17.40;54.40
9446;DHT22;4761;49.490;10.908;2022-11-18T17:44:39;17.40;54.40
9446;DHT22;4761;49.490;10.908;2022-11-18T17:47:05;17.40;54.40
9446;DHT22;4761;49.490;10.908;2022-11-18T17:49:31;17.40;54.40
9446;DHT22;4761;49.490;10.908;2022-11-18T17:51:57;17.40;54.40
9446;DHT22;4761;49.490;10.908;2022-11-18T17:54:22;17.40;54.40
9446;DHT22;4761;49.490;10.908;2022-11-18T17:56:48;17.40;54.40
9446;DHT22;4761;49.490;10.908;2022-11-18T17:59:16;17.40;54.40
9446;DHT22;4761;49.490;10.908;2022-11-18T18:01:43;17.40;54.30
9446;DHT22;4761;49.490;10.908;2022-11-18T18:04:09;17.40;54.30
9446;DHT22;4761;49.490;10.908;2022-11-18T18:06:34;17.40;54.30